Time;durP1;ratioP1;P1;durP2;ratioP2;P2;SDS_P1;SDS_P2;PMS_P1;PMS_P2;Temp;Humidity;BMP_temperature;BMP_pressure;BME280_temperature;BME280_humidity;BME280_pressure;Samples;Min_cycle;Max_cycle;Signal;HPM_P1;HPM_P2
2023/01/25 00:00:19;;;;;;;46.42;33.17;;;;;;;0.11;100.00;103659.09;4968720;28;20031;-54
2023/01/25 00:02:44;;;;;;;49.83;34.97;;;;;;;0.51;100.00;103723.53;4954188;28;20118;-56
2023/01/25 00:05:10;;;;;;;45.65;34.08;;;;;;;0.55;100.00;103728.06;4953880;28;20039;-57
2023/01/25 00:07:35;;;;;;;49.50;34.92;;;;;;;0.07;100.00;103639.91;4954163;28;20031;-58
2023/01/25 00:10:00;;;;;;;46.97;33.30;;;;;;;0.40;100.00;103695.25;4952922;28;20057;-55
2023/01/25 00:12:25;;;;;;;46.53;33.85;;;;;;;0.42;100.00;103706.59;4952730;29;20142;-57
2023/01/25 00:14:51;;;;;;;49.03;33.72;;;;;;;0.46;100.00;103711.13;4951674;29;20551;-57
2023/01/25 00:17:16;;;;;;;48.30;34.83;;;;;;;0.38;100.00;103689.09;4948106;28;20074;-56
2023/01/25 00:19:41;;;;;;;45.58;33.58;;;;;;;0.00;100.00;103627.44;4928765;28;20047;-56
2023/01/25 00:22:07;;;;;;;46.30;33.15;;;;;;;0.46;100.00;103699.06;4951731;28;20134;-56
2023/01/25 00:24:32;;;;;;;44.00;33.50;;;;;;;0.49;100.00;103699.25;4953304;29;20394;-57
2023/01/25 00:26:57;;;;;;;46.00;34.97;;;;;;;0.37;100.00;103675.25;4953717;29;20039;-54
2023/01/25 00:29:23;;;;;;;50.85;34.92;;;;;;;0.44;100.00;103681.63;4953649;28;20040;-56
2023/01/25 00:32:00;;;;;;;47.17;33.25;;;;;;;0.12;100.00;103628.09;4952448;29;20035;-56
2023/01/25 00:34:25;;;;;;;47.70;33.55;;;;;;;0.51;100.00;103689.84;4953541;29;20039;-56
2023/01/25 00:37:01;;;;;;;45.05;32.65;;;;;;;0.50;100.00;103695.81;4953680;29;20039;-57
2023/01/25 00:39:26;;;;;;;52.88;36.08;;;;;;;0.04;100.00;103597.41;4952439;29;20074;-57
2023/01/25 00:41:52;;;;;;;48.10;34.25;;;;;;;0.41;100.00;103677.19;4953407;28;20416;-56
2023/01/25 00:44:17;;;;;;;50.22;34.15;;;;;;;0.03;100.00;103601.69;4953268;28;20040;-58
2023/01/25 00:46:43;;;;;;;46.85;33.03;;;;;;;0.04;100.00;103600.88;4953391;28;20122;-54
2023/01/25 00:49:26;;;;;;;44.65;32.95;;;;;;;0.40;100.00;103666.75;4953474;28;20470;-58
2023/01/25 00:51:52;;;;;;;45.75;33.90;;;;;;;0.39;100.00;103671.03;4953300;28;20047;-56
2023/01/25 00:54:19;;;;;;;49.78;34.90;;;;;;;0.31;100.00;103646.41;4951915;29;20046;-57
2023/01/25 00:56:44;;;;;;;51.85;35.38;;;;;;;0.36;100.00;103664.78;4953318;28;20049;-56
2023/01/25 00:59:11;;;;;;;50.38;35.58;;;;;;;0.43;100.00;103664.31;4952948;28;20039;-54
2023/01/25 01:01:37;;;;;;;48.58;34.53;;;;;;;0.45;100.00;103675.66;4953269;28;20479;-57
2023/01/25 01:04:02;;;;;;;50.70;36.00;;;;;;;0.44;100.00;103692.91;4951752;29;20031;-55
2023/01/25 01:06:28;;;;;;;52.92;34.97;;;;;;;0.42;100.00;103673.78;4953687;28;20043;-56
2023/01/25 01:08:53;;;;;;;51.78;35.85;;;;;;;-0.05;100.00;103580.56;4953033;28;20115;-53
2023/01/25 01:11:18;;;;;;;52.25;35.60;;;;;;;0.30;100.00;103636.84;4953389;29;20047;-54
2023/01/25 01:13:44;;;;;;;50.83;35.85;;;;;;;0.39;100.00;103665.84;4952105;29;20036;-57
2023/01/25 01:16:10;;;;;;;48.65;34.58;;;;;;;0.40;100.00;103667.66;4953165;28;20071;-56
2023/01/25 01:18:44;;;;;;;47.55;35.13;;;;;;;0.37;100.00;103676.94;4953386;28;20036;-53
2023/01/25 01:21:10;;;;;;;51.45;34.90;;;;;;;-0.09;100.00;103585.50;4953140;28;20391;-56
2023/01/25 01:23:36;;;;;;;48.75;34.67;;;;;;;0.35;100.00;103668.22;4953066;28;20114;-54
2023/01/25 01:26:03;;;;;;;46.25;34.28;;;;;;;0.41;100.00;103663.31;4953135;28;20118;-55
2023/01/25 01:28:29;;;;;;;49.60;34.30;;;;;;;0.33;100.00;103659.44;4951854;29;20600;-55
2023/01/25 01:31:03;;;;;;;52.13;35.50;;;;;;;-0.06;100.00;103583.09;4953080;28;20118;-56
2023/01/25 01:33:28;;;;;;;46.63;34.90;;;;;;;0.29;100.00;103640.25;4951822;29;20131;-56
2023/01/25 01:35:54;;;;;;;49.80;34.60;;;;;;;0.42;100.00;103662.53;4951480;29;20070;-57
2023/01/25 01:38:19;;;;;;;50.97;34.05;;;;;;;0.05;100.00;103601.78;4952937;29;20466;-57
2023/01/25 01:40:45;;;;;;;50.40;36.38;;;;;;;0.42;100.00;103662.53;4952913;29;20035;-57
2023/01/25 01:43:19;;;;;;;44.70;33.55;;;;;;;-0.05;100.00;103579.66;4952651;28;20118;-58
2023/01/25 01:45:48;;;;;;;52.22;36.15;;;;;;;0.40;100.00;103675.44;4952929;28;20035;-56
2023/01/25 01:48:33;;;;;;;48.05;34.80;;;;;;;0.40;100.00;103678.00;4952991;28;20035;-58
2023/01/25 01:51:02;;;;;;;48.15;33.53;;;;;;;0.35;100.00;103653.53;4953093;28;20043;-58
2023/01/25 01:53:28;;;;;;;52.03;36.17;;;;;;;0.33;100.00;103649.97;4951455;29;20031;-55
2023/01/25 01:55:56;;;;;;;48.88;35.00;;;;;;;0.07;100.00;103605.34;4952793;28;20270;-55
2023/01/25 01:58:21;;;;;;;50.75;34.63;;;;;;;0.38;100.00;103663.19;4954432;29;20031;-59
2023/01/25 02:00:47;;;;;;;51.40;34.20;;;;;;;0.35;100.00;103674.25;4956290;28;20046;-54
2023/01/25 02:03:13;;;;;;;46.47;32.80;;;;;;;0.05;100.00;103610.44;4956351;29;20047;-56
2023/01/25 02:05:40;;;;;;;52.55;35.50;;;;;;;0.36;100.00;103669.97;4956739;28;20043;-55
2023/01/25 02:08:08;;;;;;;50.67;36.05;;;;;;;0.35;100.00;103655.25;4939391;29;20027;-56
2023/01/25 02:10:34;;;;;;;52.28;35.03;;;;;;;0.37;100.00;103656.22;4939063;29;20102;-55
2023/01/25 02:13:00;;;;;;;49.72;35.35;;;;;;;-0.04;100.00;103578.88;4956078;28;20043;-53
2023/01/25 02:15:35;;;;;;;52.00;36.25;;;;;;;0.32;100.00;103643.00;4956174;29;20051;-57
2023/01/25 02:18:01;;;;;;;51.05;36.17;;;;;;;-0.18;100.00;103552.25;4954661;29;20395;-58
2023/01/25 02:20:36;;;;;;;48.72;34.17;;;;;;;0.35;100.00;103652.66;4954565;29;20039;-54
2023/01/25 02:23:16;;;;;;;51.58;35.03;;;;;;;0.33;100.00;103649.06;4956195;28;20142;-58
2023/01/25 02:25:42;;;;;;;49.72;35.15;;;;;;;0.34;100.00;103646.59;4956188;29;20050;-57
2023/01/25 02:28:36;;;;;;;51.58;36.22;;;;;;;0.32;100.00;103647.31;4954919;29;20035;-57
2023/01/25 02:31:01;;;;;;;49.70;34.78;;;;;;;0.21;100.00;103641.53;4954534;29;20047;-57
2023/01/25 02:33:27;;;;;;;49.13;35.67;;;;;;;0.27;100.00;103647.06;4954922;29;20046;-58
2023/01/25 02:35:59;;;;;;;48.40;34.67;;;;;;;0.24;100.00;103633.03;4954697;29;20043;-54
2023/01/25 02:38:24;;;;;;;49.53;34.60;;;;;;;-0.25;100.00;103550.13;4955718;28;20031;-54
2023/01/25 02:40:58;;;;;;;52.40;35.20;;;;;;;0.01;100.00;103592.94;4954134;29;20374;-57
2023/01/25 02:43:27;;;;;;;50.95;35.85;;;;;;;0.24;100.00;103626.16;4954820;29;20039;-57
2023/01/25 02:45:59;;;;;;;53.97;37.10;;;;;;;-0.19;100.00;103549.56;4954577;29;20129;-57
2023/01/25 02:48:24;;;;;;;50.83;34.17;;;;;;;0.13;100.00;103606.56;4954167;29;20063;-56
2023/01/25 02:50:50;;;;;;;50.15;34.53;;;;;;;0.23;100.00;103619.22;4954571;29;20121;-56
2023/01/25 02:53:15;;;;;;;51.33;35.15;;;;;;;0.20;100.00;103610.38;4955385;29;20035;-57
2023/01/25 02:55:40;;;;;;;47.97;34.03;;;;;;;0.21;100.00;103614.75;4938110;29;20031;-54
2023/01/25 02:58:06;;;;;;;50.60;34.55;;;;;;;0.07;100.00;103590.69;4955493;29;20140;-56
2023/01/25 03:00:31;;;;;;;48.67;33.72;;;;;;;0.07;100.00;103594.97;4955187;28;20041;-56
2023/01/25 03:02:57;;;;;;;51.22;35.35;;;;;;;0.16;100.00;103611.91;4955090;28;20039;-56
2023/01/25 03:05:22;;;;;;;52.65;36.10;;;;;;;0.14;100.00;103610.94;4955409;28;20463;-54
2023/01/25 03:07:48;;;;;;;51.33;35.38;;;;;;;-0.18;100.00;103552.25;4955160;28;20118;-56
2023/01/25 03:10:13;;;;;;;52.53;35.53;;;;;;;-0.20;100.00;103543.50;4955475;28;20043;-55
2023/01/25 03:12:38;;;;;;;54.38;37.00;;;;;;;0.13;100.00;103606.56;4955300;29;20117;-56
2023/01/25 03:15:04;;;;;;;52.28;36.08;;;;;;;0.14;100.00;103602.28;4954813;28;20078;-57
2023/01/25 03:17:30;;;;;;;53.85;36.35;;;;;;;-0.17;100.00;103542.75;4955053;28;20502;-57
2023/01/25 03:19:55;;;;;;;56.25;37.35;;;;;;;0.15;100.00;103594.59;4955426;28;20043;-56
2023/01/25 03:22:21;;;;;;;56.47;37.95;;;;;;;0.10;100.00;103579.59;4955204;28;20046;-57
2023/01/25 03:24:46;;;;;;;51.78;35.45;;;;;;;-0.19;100.00;103536.63;4955283;28;20038;-57
2023/01/25 03:27:16;;;;;;;49.15;33.92;;;;;;;0.12;100.00;103594.41;4954955;28;20185;-57
2023/01/25 03:29:41;;;;;;;51.20;34.05;;;;;;;-0.34;100.00;103512.50;4955395;28;20046;-58
2023/01/25 03:32:06;;;;;;;54.63;36.47;;;;;;;-0.50;100.00;103481.44;4954838;28;20039;-58
2023/01/25 03:34:32;;;;;;;54.58;36.00;;;;;;;0.09;100.00;103589.06;4953537;29;20306;-57
2023/01/25 03:36:57;;;;;;;49.85;34.35;;;;;;;0.08;100.00;103589.00;4954531;28;20065;-56
2023/01/25 03:39:22;;;;;;;52.22;35.17;;;;;;;-0.40;100.00;103510.47;4955154;28;20031;-55
2023/01/25 03:41:48;;;;;;;53.60;36.90;;;;;;;-0.02;100.00;103575.56;4954282;28;20052;-55
2023/01/25 03:44:13;;;;;;;53.38;36.38;;;;;;;-0.45;100.00;103503.25;4954647;28;20042;-55
2023/01/25 03:46:39;;;;;;;53.45;34.65;;;;;;;-0.66;100.00;103474.50;4955127;29;20158;-54
2023/01/25 03:49:05;;;;;;;53.15;36.20;;;;;;;-0.03;100.00;103584.13;4953466;29;20161;-55
2023/01/25 03:51:30;;;;;;;56.58;36.13;;;;;;;0.07;100.00;103582.03;4954400;28;20062;-56
2023/01/25 03:53:55;;;;;;;50.22;34.42;;;;;;;0.08;100.00;103579.53;4954356;28;20069;-56
2023/01/25 03:56:21;;;;;;;54.00;35.72;;;;;;;0.06;100.00;103580.28;4954825;28;20086;-57
2023/01/25 03:58:46;;;;;;;50.60;34.80;;;;;;;-0.08;100.00;103572.63;4954119;28;20460;-59
2023/01/25 04:01:12;;;;;;;52.97;35.70;;;;;;;-0.08;100.00;103563.97;4954622;28;20035;-57
2023/01/25 04:03:37;;;;;;;50.30;34.47;;;;;;;0.00;100.00;103578.25;4954602;28;20486;-57
2023/01/25 04:06:03;;;;;;;52.20;35.17;;;;;;;-0.01;100.00;103572.16;4954318;28;20047;-56
2023/01/25 04:08:29;;;;;;;55.70;36.60;;;;;;;-0.01;100.00;103579.94;4954164;28;20050;-55
2023/01/25 04:10:59;;;;;;;53.83;35.83;;;;;;;-0.04;100.00;103569.41;4954250;28;20046;-53
2023/01/25 04:13:24;;;;;;;54.22;35.15;;;;;;;-0.05;100.00;103561.53;4954156;28;20039;-55
2023/01/25 04:15:50;;;;;;;53.10;36.15;;;;;;;-0.48;100.00;103484.97;4953750;28;20158;-54
2023/01/25 04:18:16;;;;;;;51.00;34.42;;;;;;;-0.10;100.00;103561.31;4952803;29;20163;-57
2023/01/25 04:20:43;;;;;;;55.80;35.65;;;;;;;-0.09;100.00;103569.97;4953460;28;20554;-58
2023/01/25 04:23:09;;;;;;;55.13;37.83;;;;;;;-0.10;100.00;103561.31;4952552;29;20043;-56
2023/01/25 04:25:35;;;;;;;54.22;35.95;;;;;;;-0.16;100.00;103555.81;4952878;29;20028;-56
2023/01/25 04:28:00;;;;;;;53.72;36.85;;;;;;;-0.12;100.00;103552.56;4954031;28;20043;-54
2023/01/25 04:30:25;;;;;;;57.28;36.63;;;;;;;-0.10;100.00;103560.41;4954111;28;20467;-58
2023/01/25 04:32:51;;;;;;;54.42;36.00;;;;;;;-0.12;100.00;103543.91;4953706;29;20039;-58
2023/01/25 04:35:16;;;;;;;55.65;35.85;;;;;;;-0.18;100.00;103530.66;4953808;28;20035;-58
2023/01/25 04:37:42;;;;;;;54.97;37.05;;;;;;;-0.10;100.00;103543.19;4953744;28;20038;-56
2023/01/25 04:40:08;;;;;;;53.78;35.85;;;;;;;-0.51;100.00;103470.19;4954093;28;20430;-57
2023/01/25 04:42:34;;;;;;;52.40;35.90;;;;;;;-0.54;100.00;103464.84;4953531;28;20086;-58
2023/01/25 04:44:59;;;;;;;55.30;35.45;;;;;;;-0.14;100.00;103533.47;4952525;29;20043;-58
2023/01/25 04:47:24;;;;;;;53.80;35.55;;;;;;;-0.11;100.00;103535.31;4952515;29;20023;-58
2023/01/25 04:49:50;;;;;;;56.22;37.67;;;;;;;-0.07;100.00;103532.09;4953712;28;20042;-58
2023/01/25 04:52:15;;;;;;;59.05;37.35;;;;;;;-0.09;100.00;103531.16;4953709;28;20027;-57
2023/01/25 04:54:41;;;;;;;53.75;36.22;;;;;;;-0.09;100.00;103532.00;4953590;28;20031;-56
2023/01/25 04:57:06;;;;;;;52.35;34.55;;;;;;;-0.59;100.00;103449.09;4953697;28;20085;-57
2023/01/25 04:59:31;;;;;;;55.53;35.38;;;;;;;-0.17;100.00;103529.81;4953669;29;20066;-58
2023/01/25 05:01:56;;;;;;;54.38;36.22;;;;;;;-0.11;100.00;103532.72;4952256;29;20043;-58
2023/01/25 05:04:22;;;;;;;54.65;35.28;;;;;;;-0.52;100.00;103449.38;4953605;28;20107;-57
2023/01/25 05:06:47;;;;;;;59.03;38.38;;;;;;;-0.20;100.00;103511.53;4953311;28;20047;-58
2023/01/25 05:09:13;;;;;;;58.50;38.47;;;;;;;-0.18;100.00;103516.00;4952583;29;20039;-56
2023/01/25 05:11:39;;;;;;;58.35;37.75;;;;;;;-0.23;100.00;103517.44;4953129;28;20062;-57
2023/01/25 05:14:04;;;;;;;55.45;36.63;;;;;;;-0.14;100.00;103533.47;4953572;28;20077;-56
2023/01/25 05:16:29;;;;;;;56.28;37.65;;;;;;;-0.19;100.00;103537.50;4953297;28;20059;-56
2023/01/25 05:18:55;;;;;;;60.13;38.03;;;;;;;-0.19;100.00;103528.84;4951926;29;20047;-58
2023/01/25 05:24:04;;;;;;;54.17;35.88;;;;;;;-0.29;100.00;103511.94;4952753;29;20082;-58
2023/01/25 05:29:14;;;;;;;57.78;36.70;;;;;;;-0.65;100.00;103442.69;4952620;29;20042;-57
2023/01/25 05:31:39;;;;;;;57.10;37.33;;;;;;;-0.29;100.00;103500.72;4954756;28;20031;-58
2023/01/25 05:34:04;;;;;;;56.75;37.00;;;;;;;-0.65;100.00;103433.22;4957334;29;20075;-57
2023/01/25 05:36:30;;;;;;;56.20;36.55;;;;;;;-0.17;100.00;103519.47;4956995;29;20082;-56
2023/01/25 05:38:55;;;;;;;56.45;36.65;;;;;;;-0.25;100.00;103500.03;4955654;29;20522;-57
2023/01/25 05:41:20;;;;;;;60.47;37.25;;;;;;;-0.26;100.00;103496.56;4956772;28;20034;-56
2023/01/25 05:43:49;;;;;;;58.63;36.47;;;;;;;-0.26;100.00;103499.16;4955633;29;20406;-57
2023/01/25 05:46:14;;;;;;;56.92;36.65;;;;;;;-0.29;100.00;103487.78;4956963;28;20049;-58
2023/01/25 05:48:40;;;;;;;56.53;35.78;;;;;;;-0.14;100.00;103514.44;4956908;28;20035;-56
2023/01/25 05:51:05;;;;;;;57.17;37.38;;;;;;;-0.16;100.00;103518.66;4955770;29;20122;-57
2023/01/25 05:53:31;;;;;;;59.50;36.08;;;;;;;-0.57;100.00;103454.31;4956930;28;20039;-57
2023/01/25 05:56:03;;;;;;;56.67;36.78;;;;;;;-0.68;100.00;103440.81;4955656;29;20420;-55
2023/01/25 05:58:28;;;;;;;53.25;35.22;;;;;;;-0.55;100.00;103451.84;4956611;28;20073;-57
2023/01/25 06:00:53;;;;;;;54.70;35.55;;;;;;;-0.19;100.00;103527.16;4948420;29;20073;-56
2023/01/25 06:03:19;;;;;;;61.13;38.15;;;;;;;-0.22;100.00;103536.44;4937787;29;20078;-58
2023/01/25 06:05:44;;;;;;;62.17;37.53;;;;;;;-0.23;100.00;103534.66;4936025;29;20031;-59
2023/01/25 06:08:09;;;;;;;54.72;34.25;;;;;;;-0.80;100.00;103445.31;4937631;29;20036;-57
2023/01/25 06:10:35;;;;;;;55.80;37.10;;;;;;;-0.31;100.00;103533.34;4936360;29;20039;-57
2023/01/25 06:13:00;;;;;;;56.60;37.42;;;;;;;-0.78;100.00;103454.03;4937534;29;20046;-58
2023/01/25 06:15:26;;;;;;;54.25;34.47;;;;;;;-0.30;100.00;103527.38;4936627;29;20058;-59
2023/01/25 06:17:55;;;;;;;56.97;35.38;;;;;;;-0.40;100.00;103515.63;4935341;29;20169;-58
2023/01/25 06:20:20;;;;;;;57.95;36.75;;;;;;;-0.31;100.00;103531.66;4935985;29;20040;-58
2023/01/25 06:22:52;;;;;;;58.30;36.20;;;;;;;-0.39;100.00;103519.13;4936836;29;20492;-55
2023/01/25 06:25:18;;;;;;;59.28;36.35;;;;;;;-0.94;100.00;103415.22;4903350;29;20055;-57
2023/01/25 06:27:43;;;;;;;53.80;34.60;;;;;;;-0.80;100.00;103445.31;4917818;29;20453;-57
2023/01/25 06:30:09;;;;;;;58.95;37.13;;;;;;;-0.35;100.00;103531.44;4918213;29;20032;-58
2023/01/25 06:32:34;;;;;;;51.92;33.70;;;;;;;-0.81;100.00;103445.22;4927908;29;20027;-56
2023/01/25 06:35:00;;;;;;;62.20;37.17;;;;;;;-0.44;100.00;103528.34;4937035;29;20091;-57
2023/01/25 06:37:25;;;;;;;58.50;35.05;;;;;;;-0.97;100.00;103437.44;4937281;29;20043;-54
2023/01/25 06:39:50;;;;;;;59.28;36.38;;;;;;;-1.02;100.00;103437.16;4936481;29;20040;-58
2023/01/25 06:42:16;;;;;;;58.85;36.60;;;;;;;-0.67;100.00;103501.16;4934558;29;20042;-58
2023/01/25 06:44:41;;;;;;;63.85;38.63;;;;;;;-0.62;100.00;103505.81;4934967;29;20031;-57
2023/01/25 06:47:11;;;;;;;62.50;38.15;;;;;;;-1.00;100.00;103422.66;4936706;29;20035;-56
2023/01/25 06:49:37;;;;;;;62.67;38.10;;;;;;;-0.57;100.00;103496.63;4922093;29;20032;-55
2023/01/25 06:52:02;;;;;;;68.10;40.00;;;;;;;-0.86;100.00;103463.06;4936576;29;20047;-55
2023/01/25 06:54:28;;;;;;;68.35;40.70;;;;;;;-0.42;100.00;103524.13;4935276;29;20043;-58
2023/01/25 06:56:53;;;;;;;63.45;39.53;;;;;;;-0.87;100.00;103438.00;4936374;29;20497;-56
2023/01/25 06:59:19;;;;;;;65.22;40.42;;;;;;;-0.48;100.00;103513.44;4936517;29;20036;-56
2023/01/25 07:01:44;;;;;;;63.67;40.15;;;;;;;-0.52;100.00;103503.72;4923520;29;20051;-56
2023/01/25 07:04:13;;;;;;;69.05;40.53;;;;;;;-0.92;100.00;103433.41;4923100;29;20038;-56
2023/01/25 07:06:38;;;;;;;68.80;42.75;;;;;;;-0.86;100.00;103437.22;4925282;29;20095;-58
2023/01/25 07:09:08;;;;;;;65.47;40.30;;;;;;;-0.85;100.00;103426.09;4915920;29;20631;-58
2023/01/25 07:11:34;;;;;;;75.20;41.08;;;;;;;-0.47;100.00;103503.19;4935091;29;20564;-57
2023/01/25 07:13:59;;;;;;;73.00;42.97;;;;;;;-0.46;100.00;103512.72;4936198;29;20095;-58
2023/01/25 07:16:25;;;;;;;73.15;41.28;;;;;;;-0.46;100.00;103512.72;4934370;29;20055;-58
2023/01/25 07:18:50;;;;;;;73.78;43.08;;;;;;;-0.74;100.00;103466.34;4933936;29;20052;-57
2023/01/25 07:21:22;;;;;;;76.45;43.20;;;;;;;-0.43;100.00;103517.16;4935974;29;20039;-57
2023/01/25 07:23:48;;;;;;;74.13;43.30;;;;;;;-0.91;100.00;103430.91;4936070;29;20067;-57
2023/01/25 07:26:17;;;;;;;72.65;42.53;;;;;;;-0.43;100.00;103509.41;4935050;29;20078;-57
2023/01/25 07:28:44;;;;;;;75.55;44.70;;;;;;;-0.39;100.00;103506.19;4935370;29;20075;-56
2023/01/25 07:31:09;;;;;;;74.93;43.13;;;;;;;-0.81;100.00;103433.19;4929911;29;20470;-57
2023/01/25 07:33:34;;;;;;;72.05;43.17;;;;;;;-0.77;100.00;103442.00;4927956;29;20071;-58
2023/01/25 07:36:05;;;;;;;74.25;43.35;;;;;;;-0.40;100.00;103494.94;4931944;29;20471;-56
2023/01/25 07:38:30;;;;;;;75.90;43.00;;;;;;;-0.74;100.00;103440.47;4935043;29;20384;-58
2023/01/25 07:40:56;;;;;;;73.88;41.83;;;;;;;-0.88;100.00;103405.22;4935206;29;20102;-58
2023/01/25 07:43:21;;;;;;;77.35;42.88;;;;;;;-0.49;100.00;103472.84;4935637;29;20043;-57
2023/01/25 07:45:50;;;;;;;77.88;45.00;;;;;;;-0.50;100.00;103460.72;4934829;29;20126;-55
2023/01/25 07:48:17;;;;;;;76.10;44.40;;;;;;;-0.42;100.00;103478.44;4935667;29;20418;-58
2023/01/25 07:50:45;;;;;;;79.05;45.65;;;;;;;-0.95;100.00;103381.53;4930623;29;20040;-57
2023/01/25 07:53:12;;;;;;;75.93;44.53;;;;;;;-0.80;100.00;103403.03;4918728;29;20383;-57
2023/01/25 07:55:37;;;;;;;74.72;45.17;;;;;;;-0.90;100.00;103386.13;4934068;29;20458;-58
2023/01/25 07:58:02;;;;;;;74.22;43.95;;;;;;;-1.20;100.00;103322.44;4922562;29;20039;-58
2023/01/25 08:00:28;;;;;;;75.78;45.72;;;;;;;-0.77;100.00;103396.34;4935190;29;20039;-58
2023/01/25 08:02:53;;;;;;;79.13;45.40;;;;;;;-0.35;100.00;103459.84;4935007;29;20510;-55
2023/01/25 08:05:19;;;;;;;75.45;44.47;;;;;;;-0.29;100.00;103480.88;4933341;29;20480;-57
2023/01/25 08:07:44;;;;;;;81.20;47.28;;;;;;;-0.73;100.00;103412.94;4919304;29;20036;-58
2023/01/25 08:10:10;;;;;;;79.43;45.83;;;;;;;-0.58;100.00;103424.06;4934768;29;20070;-57
2023/01/25 08:12:36;;;;;;;77.68;44.50;;;;;;;-0.32;100.00;103472.94;4934994;29;20071;-56
2023/01/25 08:15:03;;;;;;;77.28;44.67;;;;;;;-0.34;100.00;103476.25;4929073;29;20044;-58
2023/01/25 08:17:31;;;;;;;79.25;45.33;;;;;;;-0.41;100.00;103450.88;4914867;29;20063;-55
2023/01/25 08:19:57;;;;;;;74.50;43.05;;;;;;;-0.73;100.00;103390.50;4932271;29;20062;-58
2023/01/25 08:22:23;;;;;;;73.10;44.10;;;;;;;-0.22;100.00;103488.16;4933068;29;20028;-58
2023/01/25 08:24:49;;;;;;;80.78;46.38;;;;;;;-0.70;100.00;103392.41;4928110;29;20044;-56
2023/01/25 08:27:14;;;;;;;72.97;44.25;;;;;;;-0.20;100.00;103468.41;4914634;29;20114;-57
2023/01/25 08:29:40;;;;;;;72.88;43.45;;;;;;;-0.63;100.00;103385.03;4915722;29;20040;-57
2023/01/25 08:32:06;;;;;;;72.03;43.97;;;;;;;-0.23;100.00;103450.13;4930349;29;20567;-58
2023/01/25 08:34:32;;;;;;;72.40;42.22;;;;;;;-0.30;100.00;103434.22;4934600;29;20486;-50
2023/01/25 08:36:57;;;;;;;75.13;43.85;;;;;;;-0.67;100.00;103367.56;4934609;29;20055;-51
2023/01/25 08:39:23;;;;;;;73.72;45.03;;;;;;;-0.12;100.00;103455.91;4933484;29;20070;-51
2023/01/25 08:41:48;;;;;;;73.07;44.33;;;;;;;-0.15;100.00;103442.78;4935080;29;20063;-52
2023/01/25 08:44:13;;;;;;;70.90;42.05;;;;;;;-0.14;100.00;103449.72;4917544;29;20035;-51
2023/01/25 08:46:39;;;;;;;79.10;45.60;;;;;;;-0.04;100.00;103455.50;4917811;29;20051;-51
2023/01/25 08:49:04;;;;;;;76.15;43.15;;;;;;;-0.03;100.00;103457.25;4934585;29;20046;-51
2023/01/25 08:51:31;;;;;;;75.18;43.05;;;;;;;-0.02;100.00;103453.84;4934404;29;20064;-53
2023/01/25 08:54:00;;;;;;;77.90;45.42;;;;;;;-0.03;100.00;103454.66;4933591;29;20475;-51
2023/01/25 08:56:25;;;;;;;72.20;44.17;;;;;;;-0.34;100.00;103415.03;4934449;29;20043;-53
2023/01/25 08:58:51;;;;;;;78.55;45.58;;;;;;;0.05;100.00;103456.78;4934688;29;20038;-49
2023/01/25 09:01:17;;;;;;;75.07;44.03;;;;;;;0.01;100.00;103442.78;4934439;29;20489;-50
2023/01/25 09:03:45;;;;;;;72.10;43.15;;;;;;;-0.34;100.00;103363.28;4934860;29;20032;-49
2023/01/25 09:06:11;;;;;;;76.25;44.33;;;;;;;0.08;100.00;103439.69;4933861;29;20060;-53
2023/01/25 09:08:37;;;;;;;81.57;45.38;;;;;;;0.22;100.00;103464.59;4931933;29;20575;-53
2023/01/25 09:11:21;;;;;;;79.10;45.03;;;;;;;-0.02;100.00;103411.53;4932656;29;20067;-54
2023/01/25 09:13:47;;;;;;;74.07;43.90;;;;;;;0.23;100.00;103442.19;4932763;29;20031;-54
2023/01/25 09:16:16;;;;;;;70.22;42.13;;;;;;;0.24;100.00;103443.94;4932154;29;20043;-53
2023/01/25 09:18:43;;;;;;;73.38;43.70;;;;;;;0.25;100.00;103449.22;4931488;29;20051;-55
2023/01/25 09:21:14;;;;;;;71.07;42.58;;;;;;;-0.15;100.00;103354.78;4933035;29;20028;-52
2023/01/25 09:23:39;;;;;;;79.57;43.80;;;;;;;0.23;100.00;103435.31;4933068;29;20381;-54
2023/01/25 09:26:05;;;;;;;74.40;44.42;;;;;;;-0.47;100.00;103308.25;4925935;29;20051;-50
2023/01/25 09:28:31;;;;;;;69.85;42.08;;;;;;;0.25;100.00;103441.44;4913313;29;20111;-50
2023/01/25 09:30:58;;;;;;;73.80;43.42;;;;;;;0.22;100.00;103417.09;4913895;29;20448;-54
2023/01/25 09:33:29;;;;;;;76.30;44.42;;;;;;;0.34;100.00;103441.91;4928865;29;20043;-55
2023/01/25 09:35:54;;;;;;;72.55;43.03;;;;;;;0.28;100.00;103426.06;4933264;29;20504;-54
2023/01/25 09:38:20;;;;;;;71.20;43.80;;;;;;;0.29;100.00;103425.22;4916285;29;20086;-51
2023/01/25 09:41:03;;;;;;;72.88;41.88;;;;;;;0.13;100.00;103395.88;4933000;29;20414;-52
2023/01/25 09:44:17;;;;;;;72.38;43.13;;;;;;;0.28;100.00;103417.41;4933445;29;20036;-53
2023/01/25 09:46:47;;;;;;;73.07;43.35;;;;;;;-0.21;100.00;103326.00;4903020;29;20369;-53
2023/01/25 09:49:31;;;;;;;72.07;41.35;;;;;;;0.31;100.00;103410.66;4932902;29;20055;-53
2023/01/25 09:52:08;;;;;;;66.10;41.03;;;;;;;0.30;100.00;103405.41;4932958;29;20075;-51
2023/01/25 09:54:38;;;;;;;73.47;43.17;;;;;;;0.35;100.00;103411.72;4933461;29;20039;-54
2023/01/25 09:57:10;;;;;;;75.00;43.93;;;;;;;0.32;100.00;103402.06;4931835;29;20039;-51
2023/01/25 09:59:39;;;;;;;77.93;44.67;;;;;;;0.19;100.00;103391.91;4932022;29;20036;-53
2023/01/25 10:02:14;;;;;;;76.30;43.67;;;;;;;0.32;100.00;103399.47;4933134;29;20036;-52
2023/01/25 10:04:41;;;;;;;80.88;46.70;;;;;;;0.16;100.00;103355.50;4933047;29;20028;-54
2023/01/25 10:07:11;;;;;;;75.75;44.65;;;;;;;0.37;100.00;103398.03;4931273;29;20043;-51
2023/01/25 10:10:13;;;;;;;75.60;44.78;;;;;;;-0.14;100.00;103295.31;4925953;29;20547;-53
2023/01/25 10:12:39;;;;;;;80.78;45.85;;;;;;;0.38;100.00;103371.28;4930256;29;20075;-51
2023/01/25 10:15:17;;;;;;;76.78;45.47;;;;;;;0.32;100.00;103372.72;4932569;29;20071;-52
2023/01/25 10:17:42;;;;;;;70.97;41.05;;;;;;;0.38;100.00;103360.91;4930060;29;20059;-51
2023/01/25 10:20:16;;;;;;;69.55;40.50;;;;;;;0.02;100.00;103271.06;4933919;29;20086;-51
2023/01/25 10:22:49;;;;;;;66.43;41.15;;;;;;;0.46;100.00;103350.94;4936358;29;20032;-53
2023/01/25 10:25:23;;;;;;;64.22;40.35;;;;;;;0.53;100.00;103376.31;4936585;29;20094;-53
2023/01/25 10:28:23;;;;;;;64.30;38.95;;;;;;;0.59;100.00;103361.06;4936299;29;20059;-53
2023/01/25 10:31:24;;;;;;;71.65;43.08;;;;;;;0.68;100.00;103353.75;4934607;29;20083;-52
2023/01/25 10:33:50;;;;;;;67.93;41.67;;;;;;;0.11;100.00;103256.00;4876921;29;20754;-51
2023/01/25 10:36:18;;;;;;;64.32;40.63;;;;;;;0.56;100.00;103332.41;4893602;29;20080;-53
2023/01/25 10:38:48;;;;;;;72.28;44.13;;;;;;;0.12;100.00;103267.25;4897741;29;20037;-51
2023/01/25 10:41:31;;;;;;;67.10;42.53;;;;;;;0.63;100.00;103347.47;4881296;29;20454;-54
2023/01/25 10:46:45;;;;;;;70.28;41.38;;;;;;;0.55;100.00;103322.88;4898263;29;20052;-51
2023/01/25 10:49:24;;;;;;;72.25;42.95;;;;;;;0.27;100.00;103263.66;4897232;29;20392;-52
2023/01/25 10:51:49;;;;;;;66.80;40.30;;;;;;;0.67;100.00;103331.25;4896854;29;20043;-51
2023/01/25 10:54:15;;;;;;;68.22;41.55;;;;;;;0.53;100.00;103296.00;4896721;29;20033;-53
2023/01/25 10:56:42;;;;;;;68.63;40.05;;;;;;;0.67;100.00;103323.47;4897965;29;20032;-53
2023/01/25 10:59:13;;;;;;;67.72;41.55;;;;;;;0.74;100.00;103309.97;4896742;29;20040;-51
2023/01/25 11:01:39;;;;;;;65.00;40.45;;;;;;;0.34;100.00;103247.63;4897954;29;20040;-53
2023/01/25 11:04:40;;;;;;;67.85;42.28;;;;;;;0.32;100.00;103231.09;4896565;29;20217;-49
2023/01/25 11:07:25;;;;;;;66.22;38.72;;;;;;;0.62;100.00;103286.06;4897552;29;20036;-55
2023/01/25 11:09:51;;;;;;;67.88;41.00;;;;;;;0.73;100.00;103310.78;4896571;29;20111;-53
2023/01/25 11:12:18;;;;;;;64.78;39.60;;;;;;;0.28;100.00;103207.56;4896334;29;20097;-53
2023/01/25 11:14:48;;;;;;;62.38;39.22;;;;;;;0.70;100.00;103273.47;4896325;29;20477;-53